sensor_id;sensor_type;location;lat;lon;timestamp;pressure;altitude;pressure_sealevel;temperature;humidity
23574;BME280;11965;53.640;10.050;2023-03-04T00:00:02;101890.88;;;5.39;97.86
23574;BME280;11965;53.640;10.050;2023-03-04T00:02:35;101886.13;;;5.41;97.83
23574;BME280;11965;53.640;10.050;2023-03-04T00:05:03;101888.66;;;5.54;97.66
23574;BME280;11965;53.640;10.050;2023-03-04T00:07:31;101877.75;;;5.43;96.99
23574;BME280;11965;53.640;10.050;2023-03-04T00:09:58;101881.88;;;5.37;98.15
23574;BME280;11965;53.640;10.050;2023-03-04T00:12:25;101878.81;;;5.51;97.01
23574;BME280;11965;53.640;10.050;2023-03-04T00:14:52;101879.47;;;5.65;95.60
23574;BME280;11965;53.640;10.050;2023-03-04T00:17:18;101873.41;;;5.71;95.03
23574;BME280;11965;53.640;10.050;2023-03-04T00:19:45;101884.41;;;5.71;95.25
23574;BME280;11965;53.640;10.050;2023-03-04T00:22:12;101877.50;;;5.56;95.42
23574;BME280;11965;53.640;10.050;2023-03-04T00:24:41;101880.41;;;5.54;96.21
23574;BME280;11965;53.640;10.050;2023-03-04T00:27:08;101872.53;;;5.70;94.40
23574;BME280;11965;53.640;10.050;2023-03-04T00:29:34;101880.25;;;5.56;95.39
23574;BME280;11965;53.640;10.050;2023-03-04T00:32:01;101869.78;;;5.70;95.20
23574;BME280;11965;53.640;10.050;2023-03-04T00:34:31;101873.09;;;5.64;94.52
23574;BME280;11965;53.640;10.050;2023-03-04T00:36:58;101870.34;;;5.64;94.40
23574;BME280;11965;53.640;10.050;2023-03-04T00:39:26;101870.34;;;5.64;94.50
23574;BME280;11965;53.640;10.050;2023-03-04T00:41:55;101858.88;;;5.59;94.34
23574;BME280;11965;53.640;10.050;2023-03-04T00:44:21;101852.34;;;5.60;94.25
23574;BME280;11965;53.640;10.050;2023-03-04T00:46:48;101856.72;;;5.63;94.55
23574;BME280;11965;53.640;10.050;2023-03-04T00:49:15;101854.53;;;5.66;93.93
23574;BME280;11965;53.640;10.050;2023-03-04T00:51:42;101855.34;;;5.78;93.36
23574;BME280;11965;53.640;10.050;2023-03-04T00:54:09;101847.63;;;5.72;93.75
23574;BME280;11965;53.640;10.050;2023-03-04T00:56:36;101837.94;;;5.78;93.06
23574;BME280;11965;53.640;10.050;2023-03-04T00:59:04;101827.03;;;5.66;93.07
23574;BME280;11965;53.640;10.050;2023-03-04T01:01:31;101830.28;;;5.81;92.48
23574;BME280;11965;53.640;10.050;2023-03-04T01:03:58;101824.47;;;5.74;92.70
23574;BME280;11965;53.640;10.050;2023-03-04T01:06:25;101825.06;;;5.78;91.99
23574;BME280;11965;53.640;10.050;2023-03-04T01:08:52;101817.13;;;5.85;91.55
23574;BME280;11965;53.640;10.050;2023-03-04T01:11:19;101824.09;;;5.89;91.34
23574;BME280;11965;53.640;10.050;2023-03-04T01:13:46;101817.53;;;5.80;91.76
23574;BME280;11965;53.640;10.050;2023-03-04T01:16:15;101814.19;;;5.76;91.76
23574;BME280;11965;53.640;10.050;2023-03-04T01:18:42;101814.88;;;5.69;92.57
23574;BME280;11965;53.640;10.050;2023-03-04T01:21:09;101814.59;;;5.72;93.22
23574;BME280;11965;53.640;10.050;2023-03-04T01:23:36;101815.63;;;5.71;93.35
23574;BME280;11965;53.640;10.050;2023-03-04T01:26:03;101815.34;;;5.74;93.33
23574;BME280;11965;53.640;10.050;2023-03-04T01:28:30;101803.66;;;5.82;93.14
23574;BME280;11965;53.640;10.050;2023-03-04T01:31:00;101813.09;;;5.89;92.58
23574;BME280;11965;53.640;10.050;2023-03-04T01:33:28;101808.00;;;5.84;92.29
23574;BME280;11965;53.640;10.050;2023-03-04T01:35:55;101792.69;;;5.91;92.07
23574;BME280;11965;53.640;10.050;2023-03-04T01:38:24;101797.56;;;5.78;92.70
23574;BME280;11965;53.640;10.050;2023-03-04T01:40:51;101796.13;;;5.84;93.09
23574;BME280;11965;53.640;10.050;2023-03-04T01:43:22;101790.13;;;5.69;94.37
23574;BME280;11965;53.640;10.050;2023-03-04T01:45:51;101783.53;;;5.81;93.88
23574;BME280;11965;53.640;10.050;2023-03-04T01:48:23;101777.44;;;5.87;93.19
23574;BME280;11965;53.640;10.050;2023-03-04T01:50:52;101774.97;;;5.84;93.51
23574;BME280;11965;53.640;10.050;2023-03-04T01:53:22;101773.09;;;5.85;92.58
23574;BME280;11965;53.640;10.050;2023-03-04T01:55:51;101767.16;;;5.80;92.45
23574;BME280;11965;53.640;10.050;2023-03-04T01:58:22;101767.31;;;5.78;92.94
23574;BME280;11965;53.640;10.050;2023-03-04T02:00:50;101768.59;;;5.74;93.76
23574;BME280;11965;53.640;10.050;2023-03-04T02:03:18;101780.31;;;5.76;92.84
23574;BME280;11965;53.640;10.050;2023-03-04T02:05:48;101768.28;;;5.77;93.34
23574;BME280;11965;53.640;10.050;2023-03-04T02:08:21;101766.00;;;5.82;93.07
23574;BME280;11965;53.640;10.050;2023-03-04T02:10:50;101761.69;;;5.89;92.99
23574;BME280;11965;53.640;10.050;2023-03-04T02:13:18;101758.31;;;5.76;92.97
23574;BME280;11965;53.640;10.050;2023-03-04T02:15:47;101756.88;;;5.82;93.13
23574;BME280;11965;53.640;10.050;2023-03-04T02:18:17;101754.69;;;5.85;93.25
23574;BME280;11965;53.640;10.050;2023-03-04T02:20:53;101755.44;;;5.87;94.02
23574;BME280;11965;53.640;10.050;2023-03-04T02:23:31;101745.88;;;5.82;93.97
23574;BME280;11965;53.640;10.050;2023-03-04T02:26:16;101746.59;;;5.84;94.10
23574;BME280;11965;53.640;10.050;2023-03-04T02:28:48;101757.91;;;5.90;93.99
23574;BME280;11965;53.640;10.050;2023-03-04T02:31:23;101754.88;;;5.84;94.40
23574;BME280;11965;53.640;10.050;2023-03-04T02:33:54;101736.88;;;5.70;95.91
23574;BME280;11965;53.640;10.050;2023-03-04T02:36:24;101737.66;;;5.91;95.13
23574;BME280;11965;53.640;10.050;2023-03-04T02:38:53;101736.47;;;5.84;96.32
23574;BME280;11965;53.640;10.050;2023-03-04T02:41:24;101732.84;;;5.84;96.33
23574;BME280;11965;53.640;10.050;2023-03-04T02:43:53;101733.28;;;5.89;95.61
23574;BME280;11965;53.640;10.050;2023-03-04T02:46:21;101723.16;;;5.89;95.68
23574;BME280;11965;53.640;10.050;2023-03-04T02:48:49;101730.25;;;5.92;95.88
23574;BME280;11965;53.640;10.050;2023-03-04T02:51:16;101720.81;;;5.85;95.97
23574;BME280;11965;53.640;10.050;2023-03-04T02:53:43;101718.66;;;5.88;96.72
23574;BME280;11965;53.640;10.050;2023-03-04T02:56:11;101718.81;;;5.87;96.63
23574;BME280;11965;53.640;10.050;2023-03-04T02:58:40;101719.34;;;5.71;98.07
23574;BME280;11965;53.640;10.050;2023-03-04T03:01:09;101719.38;;;5.90;97.26
23574;BME280;11965;53.640;10.050;2023-03-04T03:03:36;101712.44;;;5.86;98.07
23574;BME280;11965;53.640;10.050;2023-03-04T03:06:03;101710.41;;;5.79;98.64
23574;BME280;11965;53.640;10.050;2023-03-04T03:08:30;101705.75;;;5.79;98.75
23574;BME280;11965;53.640;10.050;2023-03-04T03:10:59;101709.53;;;5.78;98.96
23574;BME280;11965;53.640;10.050;2023-03-04T03:13:27;101698.81;;;5.75;98.79
23574;BME280;11965;53.640;10.050;2023-03-04T03:15:55;101697.38;;;5.81;98.49
23574;BME280;11965;53.640;10.050;2023-03-04T03:18:23;101701.28;;;5.88;98.72
23574;BME280;11965;53.640;10.050;2023-03-04T03:20:50;101697.09;;;5.84;99.19
23574;BME280;11965;53.640;10.050;2023-03-04T03:23:17;101705.63;;;5.81;98.39
23574;BME280;11965;53.640;10.050;2023-03-04T03:25:45;101694.63;;;5.81;98.57
23574;BME280;11965;53.640;10.050;2023-03-04T03:28:12;101696.38;;;5.91;95.55
23574;BME280;11965;53.640;10.050;2023-03-04T03:30:39;101689.56;;;5.86;95.80
23574;BME280;11965;53.640;10.050;2023-03-04T03:33:07;101690.72;;;5.83;96.29
23574;BME280;11965;53.640;10.050;2023-03-04T03:35:36;101682.44;;;5.73;97.32
23574;BME280;11965;53.640;10.050;2023-03-04T03:38:02;101683.47;;;5.72;97.72
23574;BME280;11965;53.640;10.050;2023-03-04T03:40:29;101676.66;;;5.86;97.16
23574;BME280;11965;53.640;10.050;2023-03-04T03:42:56;101691.72;;;5.82;96.61
23574;BME280;11965;53.640;10.050;2023-03-04T03:45:23;101674.84;;;5.96;96.14
23574;BME280;11965;53.640;10.050;2023-03-04T03:47:50;101678.66;;;5.74;97.25
23574;BME280;11965;53.640;10.050;2023-03-04T03:50:18;101677.09;;;5.82;98.28
23574;BME280;11965;53.640;10.050;2023-03-04T03:52:45;101680.84;;;5.90;98.22
23574;BME280;11965;53.640;10.050;2023-03-04T03:55:12;101677.38;;;5.88;98.88
23574;BME280;11965;53.640;10.050;2023-03-04T03:57:39;101682.75;;;5.90;99.08
23574;BME280;11965;53.640;10.050;2023-03-04T04:00:07;101675.34;;;5.90;99.43
23574;BME280;11965;53.640;10.050;2023-03-04T04:02:40;101680.41;;;5.66;100.00
23574;BME280;11965;53.640;10.050;2023-03-04T04:05:09;101674.31;;;5.62;100.00
23574;BME280;11965;53.640;10.050;2023-03-04T04:07:37;101674.91;;;5.85;99.87
23574;BME280;11965;53.640;10.050;2023-03-04T04:10:06;101676.06;;;5.83;98.40
23574;BME280;11965;53.640;10.050;2023-03-04T04:12:33;101662.47;;;5.71;99.38
23574;BME280;11965;53.640;10.050;2023-03-04T04:15:00;101661.47;;;5.72;100.00
23574;BME280;11965;53.640;10.050;2023-03-04T04:17:27;101659.88;;;5.89;99.78
23574;BME280;11965;53.640;10.050;2023-03-04T04:19:54;101660.88;;;5.79;100.00
23574;BME280;11965;53.640;10.050;2023-03-04T04:22:21;101664.63;;;5.78;100.00
23574;BME280;11965;53.640;10.050;2023-03-04T04:24:49;101670.72;;;5.81;98.38
23574;BME280;11965;53.640;10.050;2023-03-04T04:27:16;101666.22;;;5.80;98.31
23574;BME280;11965;53.640;10.050;2023-03-04T04:29:43;101664.81;;;5.86;97.13
23574;BME280;11965;53.640;10.050;2023-03-04T04:32:09;101656.81;;;5.92;96.49
23574;BME280;11965;53.640;10.050;2023-03-04T04:34:37;101671.88;;;5.88;95.78
23574;BME280;11965;53.640;10.050;2023-03-04T04:37:04;101654.84;;;5.94;91.54
23574;BME280;11965;53.640;10.050;2023-03-04T04:39:31;101671.44;;;5.93;89.04
23574;BME280;11965;53.640;10.050;2023-03-04T04:41:59;101666.38;;;5.79;86.26
23574;BME280;11965;53.640;10.050;2023-03-04T04:44:26;101658.41;;;5.75;84.95
23574;BME280;11965;53.640;10.050;2023-03-04T04:46:53;101664.50;;;5.79;84.89
23574;BME280;11965;53.640;10.050;2023-03-04T04:49:20;101661.75;;;5.89;83.43
23574;BME280;11965;53.640;10.050;2023-03-04T04:51:47;101660.47;;;5.83;81.42
23574;BME280;11965;53.640;10.050;2023-03-04T04:54:14;101662.47;;;5.91;81.21
23574;BME280;11965;53.640;10.050;2023-03-04T04:56:41;101667.41;;;5.87;80.13
23574;BME280;11965;53.640;10.050;2023-03-04T04:59:09;101655.22;;;5.80;80.16
23574;BME280;11965;53.640;10.050;2023-03-04T05:01:36;101659.13;;;5.78;80.06
23574;BME280;11965;53.640;10.050;2023-03-04T05:04:03;101659.00;;;5.89;79.88
23574;BME280;11965;53.640;10.050;2023-03-04T05:06:30;101660.47;;;5.83;79.45
23574;BME280;11965;53.640;10.050;2023-03-04T05:08:57;101661.75;;;5.79;79.89
23574;BME280;11965;53.640;10.050;2023-03-04T05:11:24;101651.06;;;5.86;79.52
23574;BME280;11965;53.640;10.050;2023-03-04T05:13:51;101660.00;;;5.78;80.85
23574;BME280;11965;53.640;10.050;2023-03-04T05:16:19;101645.97;;;5.81;81.98
23574;BME280;11965;53.640;10.050;2023-03-04T05:18:46;101656.22;;;5.69;82.78
23574;BME280;11965;53.640;10.050;2023-03-04T05:21:13;101657.09;;;5.80;81.65
23574;BME280;11965;53.640;10.050;2023-03-04T05:23:42;101658.41;;;5.66;82.91
23574;BME280;11965;53.640;10.050;2023-03-04T05:26:12;101650.31;;;5.64;84.19
23574;BME280;11965;53.640;10.050;2023-03-04T05:28:40;101656.09;;;5.71;83.24
23574;BME280;11965;53.640;10.050;2023-03-04T05:31:06;101659.56;;;5.73;83.37
23574;BME280;11965;53.640;10.050;2023-03-04T05:33:35;101659.13;;;5.68;83.35
23574;BME280;11965;53.640;10.050;2023-03-04T05:36:03;101660.88;;;5.59;83.75
23574;BME280;11965;53.640;10.050;2023-03-04T05:38:30;101662.16;;;5.55;85.38
23574;BME280;11965;53.640;10.050;2023-03-04T05:41:00;101667.34;;;5.58;84.53
23574;BME280;11965;53.640;10.050;2023-03-04T05:43:29;101671.84;;;5.69;84.29
23574;BME280;11965;53.640;10.050;2023-03-04T05:45:56;101659.72;;;5.81;83.29
23574;BME280;11965;53.640;10.050;2023-03-04T05:48:23;101656.22;;;5.69;82.63
23574;BME280;11965;53.640;10.050;2023-03-04T05:50:54;101661.44;;;5.63;83.03
23574;BME280;11965;53.640;10.050;2023-03-04T05:53:21;101665.34;;;5.60;82.68
23574;BME280;11965;53.640;10.050;2023-03-04T05:55:49;101662.47;;;5.62;81.95
23574;BME280;11965;53.640;10.050;2023-03-04T05:58:17;101666.63;;;5.56;81.83
23574;BME280;11965;53.640;10.050;2023-03-04T06:00:44;101666.06;;;5.72;81.67
23574;BME280;11965;53.640;10.050;2023-03-04T06:03:14;101668.22;;;5.49;84.42
23574;BME280;11965;53.640;10.050;2023-03-04T06:05:41;101666.78;;;5.54;85.82
23574;BME280;11965;53.640;10.050;2023-03-04T06:08:10;101667.34;;;5.58;86.46
23574;BME280;11965;53.640;10.050;2023-03-04T06:10:39;101669.56;;;5.74;83.02
23574;BME280;11965;53.640;10.050;2023-03-04T06:13:07;101673.63;;;5.70;81.26
23574;BME280;11965;53.640;10.050;2023-03-04T06:15:34;101662.00;;;5.57;82.24
23574;BME280;11965;53.640;10.050;2023-03-04T06:18:01;101673.16;;;5.55;82.76
23574;BME280;11965;53.640;10.050;2023-03-04T06:20:28;101680.53;;;5.54;82.06
23574;BME280;11965;53.640;10.050;2023-03-04T06:22:55;101679.06;;;5.50;82.11
23574;BME280;11965;53.640;10.050;2023-03-04T06:25:23;101675.06;;;5.74;79.24
23574;BME280;11965;53.640;10.050;2023-03-04T06:27:51;101668.13;;;5.70;78.29
23574;BME280;11965;53.640;10.050;2023-03-04T06:30:18;101672.28;;;5.54;77.71
23574;BME280;11965;53.640;10.050;2023-03-04T06:32:45;101675.56;;;5.39;78.29
23574;BME280;11965;53.640;10.050;2023-03-04T06:35:14;101682.53;;;5.52;77.54
23574;BME280;11965;53.640;10.050;2023-03-04T06:37:41;101686.59;;;5.48;77.31
23574;BME280;11965;53.640;10.050;2023-03-04T06:40:10;101694.28;;;5.54;77.68
23574;BME280;11965;53.640;10.050;2023-03-04T06:42:39;101687.31;;;5.50;77.11
23574;BME280;11965;53.640;10.050;2023-03-04T06:45:08;101689.06;;;5.51;77.75
23574;BME280;11965;53.640;10.050;2023-03-04T06:47:35;101687.91;;;5.54;77.63
23574;BME280;11965;53.640;10.050;2023-03-04T06:50:02;101688.50;;;5.58;77.71
23574;BME280;11965;53.640;10.050;2023-03-04T06:52:29;101692.84;;;5.60;78.06
23574;BME280;11965;53.640;10.050;2023-03-04T06:54:56;101691.53;;;5.54;77.13
23574;BME280;11965;53.640;10.050;2023-03-04T06:57:23;101690.50;;;5.46;77.19
23574;BME280;11965;53.640;10.050;2023-03-04T06:59:51;101689.34;;;5.48;77.96
23574;BME280;11965;53.640;10.050;2023-03-04T07:02:18;101687.47;;;5.49;78.78
23574;BME280;11965;53.640;10.050;2023-03-04T07:04:45;101693.22;;;5.36;78.81
23574;BME280;11965;53.640;10.050;2023-03-04T07:07:12;101694.41;;;5.43;78.70
23574;BME280;11965;53.640;10.050;2023-03-04T07:09:39;101686.84;;;5.45;78.27
23574;BME280;11965;53.640;10.050;2023-03-04T07:12:06;101695.38;;;5.42;77.77
23574;BME280;11965;53.640;10.050;2023-03-04T07:14:33;101708.78;;;5.57;77.86
23574;BME280;11965;53.640;10.050;2023-03-04T07:17:01;101701.50;;;5.46;76.54
23574;BME280;11965;53.640;10.050;2023-03-04T07:19:28;101695.38;;;5.42;76.32
23574;BME280;11965;53.640;10.050;2023-03-04T07:21:55;101699.16;;;5.41;76.34
23574;BME280;11965;53.640;10.050;2023-03-04T07:24:21;101695.09;;;5.45;76.47
23574;BME280;11965;53.640;10.050;2023-03-04T07:26:48;101696.28;;;5.52;74.93
23574;BME280;11965;53.640;10.050;2023-03-04T07:29:15;101696.16;;;5.64;75.46
23574;BME280;11965;53.640;10.050;2023-03-04T07:31:42;101703.81;;;5.50;74.37
23574;BME280;11965;53.640;10.050;2023-03-04T07:34:12;101709.31;;;5.41;75.95
23574;BME280;11965;53.640;10.050;2023-03-04T07:36:39;101701.06;;;5.41;76.47
23574;BME280;11965;53.640;10.050;2023-03-04T07:39:07;101724.81;;;5.61;75.91
23574;BME280;11965;53.640;10.050;2023-03-04T07:41:35;101712.34;;;5.47;72.90
23574;BME280;11965;53.640;10.050;2023-03-04T07:44:03;101716.56;;;5.61;71.41
23574;BME280;11965;53.640;10.050;2023-03-04T07:46:31;101710.53;;;5.67;72.12
23574;BME280;11965;53.640;10.050;2023-03-04T07:48:58;101723.50;;;5.56;71.49
23574;BME280;11965;53.640;10.050;2023-03-04T07:51:27;101722.81;;;5.53;72.20
23574;BME280;11965;53.640;10.050;2023-03-04T07:53:57;101711.38;;;5.68;69.42
23574;BME280;11965;53.640;10.050;2023-03-04T07:56:26;101719.47;;;5.60;69.56
23574;BME280;11965;53.640;10.050;2023-03-04T07:58:54;101711.09;;;5.71;68.64
23574;BME280;11965;53.640;10.050;2023-03-04T08:01:23;101722.72;;;5.84;69.18
23574;BME280;11965;53.640;10.050;2023-03-04T08:03:50;101718.66;;;5.79;68.63
23574;BME280;11965;53.640;10.050;2023-03-04T08:06:19;101729.22;;;5.73;69.09
23574;BME280;11965;53.640;10.050;2023-03-04T08:08:49;101732.66;;;5.66;67.68
23574;BME280;11965;53.640;10.050;2023-03-04T08:11:21;101726.25;;;5.56;69.38
23574;BME280;11965;53.640;10.050;2023-03-04T08:13:48;101729.78;;;5.67;69.14
23574;BME280;11965;53.640;10.050;2023-03-04T08:16:20;101737.91;;;5.79;68.54
23574;BME280;11965;53.640;10.050;2023-03-04T08:18:50;101736.31;;;5.76;68.38
23574;BME280;11965;53.640;10.050;2023-03-04T08:21:19;101739.75;;;5.68;69.36
23574;BME280;11965;53.640;10.050;2023-03-04T08:23:48;101737.63;;;5.82;69.90
23574;BME280;11965;53.640;10.050;2023-03-04T08:26:19;101737.34;;;5.75;68.44
23574;BME280;11965;53.640;10.050;2023-03-04T08:28:46;101736.16;;;5.68;67.41
23574;BME280;11965;53.640;10.050;2023-03-04T08:31:14;101747.72;;;5.62;67.46
23574;BME280;11965;53.640;10.050;2023-03-04T08:33:42;101739.63;;;5.70;69.26
23574;BME280;11965;53.640;10.050;2023-03-04T08:36:09;101739.19;;;5.65;69.48
23574;BME280;11965;53.640;10.050;2023-03-04T08:38:36;101746.56;;;5.64;69.99
23574;BME280;11965;53.640;10.050;2023-03-04T08:41:05;101750.19;;;5.65;69.87
23574;BME280;11965;53.640;10.050;2023-03-04T08:43:33;101742.53;;;5.88;68.68
23574;BME280;11965;53.640;10.050;2023-03-04T08:46:00;101743.41;;;5.88;68.42
23574;BME280;11965;53.640;10.050;2023-03-04T08:48:27;101747.34;;;5.86;68.03
23574;BME280;11965;53.640;10.050;2023-03-04T08:50:54;101753.34;;;5.60;69.10
23574;BME280;11965;53.640;10.050;2023-03-04T08:53:21;101756.88;;;5.82;68.92
23574;BME280;11965;53.640;10.050;2023-03-04T08:55:50;101751.53;;;5.90;67.44
23574;BME280;11965;53.640;10.050;2023-03-04T08:58:19;101747.34;;;5.86;69.74
23574;BME280;11965;53.640;10.050;2023-03-04T09:00:48;101742.13;;;5.92;68.61
23574;BME280;11965;53.640;10.050;2023-03-04T09:03:16;101756.25;;;6.18;68.25
23574;BME280;11965;53.640;10.050;2023-03-04T09:05:45;101745.50;;;6.25;67.44
23574;BME280;11965;53.640;10.050;2023-03-04T09:08:12;101744.09;;;6.21;68.22
23574;BME280;11965;53.640;10.050;2023-03-04T09:10:40;101735.09;;;6.29;67.13
23574;BME280;11965;53.640;10.050;2023-03-04T09:13:07;101748.88;;;6.29;66.01
23574;BME280;11965;53.640;10.050;2023-03-04T09:15:41;101747.22;;;6.07;67.29
23574;BME280;11965;53.640;10.050;2023-03-04T09:18:09;101748.38;;;6.04;66.63
23574;BME280;11965;53.640;10.050;2023-03-04T09:20:36;101756.53;;;6.15;66.70
23574;BME280;11965;53.640;10.050;2023-03-04T09:23:03;101749.28;;;6.44;65.66
23574;BME280;11965;53.640;10.050;2023-03-04T09:25:30;101751.44;;;6.20;64.29
23574;BME280;11965;53.640;10.050;2023-03-04T09:27:57;101757.25;;;6.08;65.43
23574;BME280;11965;53.640;10.050;2023-03-04T09:30:24;101748.56;;;6.03;65.72
23574;BME280;11965;53.640;10.050;2023-03-04T09:32:52;101750.00;;;6.07;64.20
23574;BME280;11965;53.640;10.050;2023-03-04T09:35:19;101744.38;;;6.18;64.05
23574;BME280;11965;53.640;10.050;2023-03-04T09:37:45;101747.09;;;6.08;64.37
23574;BME280;11965;53.640;10.050;2023-03-04T09:40:18;101743.78;;;6.14;64.28
23574;BME280;11965;53.640;10.050;2023-03-04T09:42:49;101736.97;;;6.38;62.59
23574;BME280;11965;53.640;10.050;2023-03-04T09:45:21;101735.38;;;6.45;61.31
23574;BME280;11965;53.640;10.050;2023-03-04T09:47:53;101744.63;;;6.44;59.83
23574;BME280;11965;53.640;10.050;2023-03-04T09:50:21;101739.00;;;6.36;60.17
23574;BME280;11965;53.640;10.050;2023-03-04T09:53:04;101728.97;;;6.45;59.08
23574;BME280;11965;53.640;10.050;2023-03-04T09:55:34;101753.75;;;6.45;59.23
23574;BME280;11965;53.640;10.050;2023-03-04T09:58:10;101740.59;;;6.38;60.93
23574;BME280;11965;53.640;10.050;2023-03-04T10:00:42;101741.44;;;6.39;60.06
23574;BME280;11965;53.640;10.050;2023-03-04T10:03:16;101746.53;;;6.34;61.59
23574;BME280;11965;53.640;10.050;2023-03-04T10:05:51;101735.09;;;6.48;60.71
23574;BME280;11965;53.640;10.050;2023-03-04T10:08:40;101740.88;;;6.64;58.79
23574;BME280;11965;53.640;10.050;2023-03-04T10:11:14;101731.13;;;6.70;58.34
23574;BME280;11965;53.640;10.050;2023-03-04T10:13:52;101730.53;;;6.86;59.57
23574;BME280;11965;53.640;10.050;2023-03-04T10:16:25;101724.09;;;6.95;59.35
23574;BME280;11965;53.640;10.050;2023-03-04T10:19:03;101718.34;;;6.89;57.08
23574;BME280;11965;53.640;10.050;2023-03-04T10:21:40;101734.75;;;6.80;57.23
23574;BME280;11965;53.640;10.050;2023-03-04T10:24:11;101729.63;;;6.95;57.98
23574;BME280;11965;53.640;10.050;2023-03-04T10:26:44;101727.50;;;7.26;59.65
23574;BME280;11965;53.640;10.050;2023-03-04T10:29:15;101729.81;;;7.21;58.15
23574;BME280;11965;53.640;10.050;2023-03-04T10:31:43;101718.81;;;7.12;60.09
23574;BME280;11965;53.640;10.050;2023-03-04T10:34:13;101721.00;;;7.18;59.35
23574;BME280;11965;53.640;10.050;2023-03-04T10:36:50;101735.25;;;7.41;57.24
23574;BME280;11965;53.640;10.050;2023-03-04T10:39:24;101742.56;;;7.32;58.88
23574;BME280;11965;53.640;10.050;2023-03-04T10:42:00;101741.16;;;7.18;55.70
23574;BME280;11965;53.640;10.050;2023-03-04T10:44:28;101730.75;;;7.02;56.80
23574;BME280;11965;53.640;10.050;2023-03-04T10:46:56;101739.06;;;7.30;57.19
23574;BME280;11965;53.640;10.050;2023-03-04T10:49:26;101738.84;;;7.51;56.79
23574;BME280;11965;53.640;10.050;2023-03-04T10:52:00;101727.44;;;7.64;57.19
23574;BME280;11965;53.640;10.050;2023-03-04T10:54:31;101734.50;;;7.48;55.73
23574;BME280;11965;53.640;10.050;2023-03-04T10:57:02;101732.16;;;7.53;56.51
23574;BME280;11965;53.640;10.050;2023-03-04T10:59:39;101729.25;;;7.55;54.71
23574;BME280;11965;53.640;10.050;2023-03-04T11:02:19;101728.56;;;7.43;55.39
23574;BME280;11965;53.640;10.050;2023-03-04T11:04:56;101728.84;;;7.50;58.11
23574;BME280;11965;53.640;10.050;2023-03-04T11:07:25;101740.81;;;7.31;58.04
23574;BME280;11965;53.640;10.050;2023-03-04T11:09:52;101731.44;;;7.51;56.87
23574;BME280;11965;53.640;10.050;2023-03-04T11:12:21;101741.81;;;7.30;56.35
23574;BME280;11965;53.640;10.050;2023-03-04T11:14:57;101749.34;;;7.38;56.40
23574;BME280;11965;53.640;10.050;2023-03-04T11:17:26;101731.66;;;7.30;56.04
23574;BME280;11965;53.640;10.050;2023-03-04T11:20:06;101734.38;;;7.13;56.62
23574;BME280;11965;53.640;10.050;2023-03-04T11:22:38;101736.91;;;7.34;57.65
23574;BME280;11965;53.640;10.050;2023-03-04T11:25:07;101745.97;;;7.44;54.94
23574;BME280;11965;53.640;10.050;2023-03-04T11:27:41;101733.41;;;7.32;54.85
23574;BME280;11965;53.640;10.050;2023-03-04T11:30:28;101726.94;;;7.50;52.85
23574;BME280;11965;53.640;10.050;2023-03-04T11:33:15;101728.44;;;7.45;53.50
23574;BME280;11965;53.640;10.050;2023-03-04T11:35:58;101720.16;;;7.07;54.83
23574;BME280;11965;53.640;10.050;2023-03-04T11:38:35;101724.19;;;7.23;55.14
23574;BME280;11965;53.640;10.050;2023-03-04T11:41:07;101721.41;;;7.23;54.82
23574;BME280;11965;53.640;10.050;2023-03-04T11:43:38;101715.13;;;7.30;56.67
23574;BME280;11965;53.640;10.050;2023-03-04T11:52:27;101712.78;;;7.36;54.88
23574;BME280;11965;53.640;10.050;2023-03-04T11:55:15;101705.38;;;7.64;54.98
23574;BME280;11965;53.640;10.050;2023-03-04T11:57:54;101714.69;;;7.81;52.42
23574;BME280;11965;53.640;10.050;2023-03-04T12:00:36;101712.03;;;7.89;54.51
23574;BME280;11965;53.640;10.050;2023-03-04T12:03:23;101701.84;;;7.89;54.02
23574;BME280;11965;53.640;10.050;2023-03-04T12:06:00;101705.28;;;8.01;53.22
23574;BME280;11965;53.640;10.050;2023-03-04T12:08:44;101705.00;;;7.94;53.27
23574;BME280;11965;53.640;10.050;2023-03-04T12:11:26;101694.91;;;8.03;53.38
23574;BME280;11965;53.640;10.050;2023-03-04T12:14:15;101686.09;;;8.17;52.91
23574;BME280;11965;53.640;10.050;2023-03-04T12:22:51;101694.44;;;8.08;51.26
23574;BME280;11965;53.640;10.050;2023-03-04T12:25:42;101685.31;;;8.25;50.38
23574;BME280;11965;53.640;10.050;2023-03-04T12:28:24;101682.47;;;8.17;51.04
23574;BME280;11965;53.640;10.050;2023-03-04T12:31:15;101673.00;;;8.19;53.56
23574;BME280;11965;53.640;10.050;2023-03-04T12:34:03;101672.38;;;8.44;50.75
23574;BME280;11965;53.640;10.050;2023-03-04T12:36:41;101670.19;;;8.37;51.90
23574;BME280;11965;53.640;10.050;2023-03-04T12:39:28;101671.56;;;8.33;53.76
23574;BME280;11965;53.640;10.050;2023-03-04T12:42:10;101660.44;;;8.25;53.28
23574;BME280;11965;53.640;10.050;2023-03-04T12:44:47;101660.28;;;8.27;51.32
23574;BME280;11965;53.640;10.050;2023-03-04T12:47:31;101671.56;;;8.15;53.31
23574;BME280;11965;53.640;10.050;2023-03-04T12:50:25;101664.94;;;8.08;53.54
23574;BME280;11965;53.640;10.050;2023-03-04T12:53:08;101661.25;;;8.00;52.15
23574;BME280;11965;53.640;10.050;2023-03-04T12:55:43;101667.94;;;7.97;51.92
23574;BME280;11965;53.640;10.050;2023-03-04T12:58:17;101659.56;;;8.25;51.61
23574;BME280;11965;53.640;10.050;2023-03-04T13:00:52;101654.81;;;8.35;51.04
23574;BME280;11965;53.640;10.050;2023-03-04T13:03:31;101663.44;;;8.14;50.32
23574;BME280;11965;53.640;10.050;2023-03-04T13:06:10;101655.72;;;7.82;51.84
23574;BME280;11965;53.640;10.050;2023-03-04T13:08:52;101651.31;;;8.07;53.06
23574;BME280;11965;53.640;10.050;2023-03-04T13:11:44;101664.31;;;7.96;52.22
23574;BME280;11965;53.640;10.050;2023-03-04T13:14:27;101663.69;;;8.03;51.99
23574;BME280;11965;53.640;10.050;2023-03-04T13:16:56;101659.53;;;7.99;52.01